Time;durP1;ratioP1;P1;durP2;ratioP2;P2;SDS_P1;SDS_P2;PMS_P1;PMS_P2;Temp;Humidity;BMP_temperature;BMP_pressure;BME280_temperature;BME280_humidity;BME280_pressure;Samples;Min_cycle;Max_cycle;Signal;HPM_P1;HPM_P2
2022/06/05 00:00:22;;;;;;;8.98;8.15;;;;;;;20.62;70.74;99509.16;345857;28;1273;-65
2022/06/05 00:00:42;;;;;;;9.80;8.50;;;;;;;20.62;70.82;99509.16;344460;28;2170;-65
2022/06/05 00:01:20;;;;;;;9.23;8.50;;;;;;;20.64;70.55;99512.53;345629;28;1099;-65
2022/06/05 00:01:57;;;;;;;9.45;8.65;;;;;;;20.67;70.53;99514.94;345499;28;1883;-65
2022/06/05 00:02:38;;;;;;;8.13;7.45;;;;;;;20.69;70.37;99510.38;345858;28;1107;-65
2022/06/05 00:03:31;;;;;;;8.85;7.80;;;;;;;20.69;70.30;99520.13;339504;29;1301;-66
2022/06/05 00:04:01;;;;;;;8.73;7.93;;;;;;;20.68;70.15;99519.25;340954;28;1326;-66
2022/06/05 00:04:31;;;;;;;9.02;8.23;;;;;;;20.69;70.20;99520.13;346514;28;1263;-66
2022/06/05 00:05:02;;;;;;;9.20;8.15;;;;;;;20.68;70.07;99516.63;345992;28;1966;-66
2022/06/05 00:05:23;;;;;;;8.80;8.00;;;;;;;20.67;70.38;99514.94;346261;28;1199;-65
2022/06/05 00:05:48;;;;;;;8.77;8.00;;;;;;;20.68;70.25;99513.97;346577;28;1860;-66
2022/06/05 00:06:18;;;;;;;9.32;8.25;;;;;;;20.67;70.66;99517.59;344835;28;1051;-66
2022/06/05 00:06:55;;;;;;;9.23;7.75;;;;;;;20.68;70.43;99513.97;345571;28;1292;-66
2022/06/05 00:07:18;;;;;;;8.90;8.00;;;;;;;20.70;70.56;99505.94;345094;28;1093;-66
2022/06/05 00:07:45;;;;;;;8.80;7.90;;;;;;;20.71;70.56;99515.56;345884;28;1268;-66
2022/06/05 00:08:09;;;;;;;8.70;7.90;;;;;;;20.61;70.75;99518.06;344733;28;1692;-66
2022/06/05 00:08:52;;;;;;;9.13;8.27;;;;;;;20.63;70.66;99518.78;346389;28;1282;-66
2022/06/05 00:09:21;;;;;;;8.55;7.78;;;;;;;20.66;70.32;99515.91;344965;28;1102;-65
2022/06/05 00:10:07;;;;;;;8.80;8.00;;;;;;;20.68;70.17;99519.25;346061;28;1969;-66
2022/06/05 00:10:24;;;;;;;9.60;8.25;;;;;;;20.69;70.44;99520.13;341789;28;1248;-66
2022/06/05 00:10:56;;;;;;;8.98;8.07;;;;;;;20.69;70.34;99520.97;341195;28;1835;-66
2022/06/05 00:11:11;;;;;;;8.77;7.97;;;;;;;20.70;70.21;99521.78;345156;28;1054;-66
2022/06/05 00:11:23;;;;;;;9.13;8.30;;;;;;;20.71;70.34;99529.59;345132;28;1051;-65
2022/06/05 00:12:16;;;;;;;9.30;8.50;;;;;;;20.64;70.35;99523.09;344817;28;1878;-66
2022/06/05 00:12:56;;;;;;;9.27;8.38;;;;;;;20.66;70.33;99525.63;340980;28;1288;-66
2022/06/05 00:13:27;;;;;;;9.40;8.50;;;;;;;20.57;71.01;99521.88;345988;28;1101;-66
2022/06/05 00:13:52;;;;;;;9.52;8.60;;;;;;;20.57;70.98;99521.03;344676;28;2087;-66
2022/06/05 00:14:04;;;;;;;8.93;8.13;;;;;;;20.57;70.75;99516.59;344985;28;926;-66
2022/06/05 00:14:16;;;;;;;9.13;8.32;;;;;;;20.60;70.67;99516.38;344903;28;1166;-65
2022/06/05 00:14:30;;;;;;;9.25;8.30;;;;;;;20.62;70.85;99518.91;345552;28;1428;-66
2022/06/05 00:14:43;;;;;;;10.13;8.30;;;;;;;20.64;70.61;99520.44;345211;28;1873;-66
2022/06/05 00:14:55;;;;;;;11.40;8.43;;;;;;;20.66;70.60;99518.53;345582;28;1540;-66
2022/06/05 00:15:09;;;;;;;8.90;8.02;;;;;;;20.67;70.55;99517.59;345348;28;1809;-66
2022/06/05 00:15:21;;;;;;;8.65;7.82;;;;;;;20.68;70.55;99513.97;346378;28;2197;-66
2022/06/05 00:15:33;;;;;;;8.90;8.02;;;;;;;20.70;70.29;99517.34;346321;28;1291;-66
2022/06/05 00:15:45;;;;;;;8.82;7.78;;;;;;;20.71;70.46;99516.41;346402;28;2243;-66
2022/06/05 00:15:58;;;;;;;8.70;7.65;;;;;;;20.72;70.42;99515.41;345797;28;1650;-66
2022/06/05 00:16:13;;;;;;;9.27;7.88;;;;;;;20.72;70.15;99514.59;346119;28;1186;-66
2022/06/05 00:16:29;;;;;;;8.90;7.97;;;;;;;20.72;70.21;99520.69;344656;28;1379;-66
2022/06/05 00:16:41;;;;;;;8.88;7.93;;;;;;;20.75;70.32;99511.72;344932;28;2388;-66
2022/06/05 00:16:54;;;;;;;8.75;7.93;;;;;;;20.74;69.93;99512.66;345260;28;2231;-66
2022/06/05 00:17:09;;;;;;;8.98;8.13;;;;;;;20.75;70.07;99509.91;346229;28;1065;-66
2022/06/05 00:17:22;;;;;;;8.88;8.02;;;;;;;20.77;70.11;99506.34;346016;28;1110;-66
2022/06/05 00:17:34;;;;;;;8.63;7.85;;;;;;;20.78;70.16;99508.00;345446;28;2011;-66
2022/06/05 00:17:46;;;;;;;8.65;7.95;;;;;;;20.77;69.83;99508.97;345433;28;2168;-66
2022/06/05 00:17:58;;;;;;;8.68;7.97;;;;;;;20.77;69.99;99507.16;346165;28;1149;-66
2022/06/05 00:18:11;;;;;;;8.60;7.90;;;;;;;20.78;69.84;99508.00;345820;28;1174;-66
2022/06/05 00:18:24;;;;;;;8.48;7.78;;;;;;;20.79;69.73;99507.06;347266;28;1415;-66
2022/06/05 00:18:38;;;;;;;8.30;7.60;;;;;;;20.81;69.70;99507.78;345413;28;2055;-66
2022/06/05 00:18:51;;;;;;;8.70;7.90;;;;;;;20.80;69.59;99508.72;346120;28;1057;-66
2022/06/05 00:19:03;;;;;;;9.00;8.10;;;;;;;20.82;69.74;99509.44;346147;28;1098;-66
2022/06/05 00:19:15;;;;;;;8.75;7.85;;;;;;;20.82;69.90;99504.16;346034;28;1184;-66
2022/06/05 00:19:30;;;;;;;8.55;7.70;;;;;;;20.82;69.61;99504.16;346133;28;1269;-66
2022/06/05 00:19:46;;;;;;;8.80;8.00;;;;;;;20.83;69.57;99500.56;345523;28;2119;-66
2022/06/05 00:19:58;;;;;;;8.88;7.97;;;;;;;20.83;69.81;99504.03;345334;28;1430;-66
2022/06/05 00:20:11;;;;;;;8.73;7.93;;;;;;;20.83;69.64;99505.84;346161;28;1191;-66
2022/06/05 00:20:23;;;;;;;8.48;7.80;;;;;;;20.85;69.39;99503.94;344800;28;1050;-66
2022/06/05 00:20:35;;;;;;;8.40;7.70;;;;;;;20.86;69.73;99505.59;344938;28;1989;-66
2022/06/05 00:20:47;;;;;;;8.57;7.78;;;;;;;20.85;69.71;99499.47;346093;28;2266;-66
2022/06/05 00:20:59;;;;;;;9.30;8.18;;;;;;;20.83;69.57;99500.56;346028;28;1035;-66
2022/06/05 00:21:12;;;;;;;8.95;8.05;;;;;;;20.84;69.48;99499.59;345790;28;1944;-66
2022/06/05 00:21:24;;;;;;;8.40;7.65;;;;;;;20.85;69.68;99506.56;345786;28;1997;-66
2022/06/05 00:21:36;;;;;;;8.38;7.60;;;;;;;20.84;69.97;99505.72;346019;28;2216;-66
2022/06/05 00:21:49;;;;;;;8.73;7.88;;;;;;;20.82;69.96;99498.88;346474;28;1058;-66
2022/06/05 00:22:01;;;;;;;8.90;8.00;;;;;;;20.83;69.97;99503.22;345053;28;1058;-66
2022/06/05 00:22:13;;;;;;;8.93;8.10;;;;;;;20.83;69.73;99500.56;344862;28;1043;-66
2022/06/05 00:22:25;;;;;;;8.65;7.90;;;;;;;20.80;69.77;99495.50;344842;28;1270;-66
2022/06/05 00:22:38;;;;;;;8.77;7.90;;;;;;;20.81;69.99;99497.22;345533;28;1910;-66
2022/06/05 00:22:51;;;;;;;9.05;7.95;;;;;;;20.83;69.97;99495.28;344031;28;3886;-66
2022/06/05 00:23:04;;;;;;;8.98;8.07;;;;;;;20.82;69.93;99496.22;344916;28;2559;-66
2022/06/05 00:23:16;;;;;;;8.98;8.10;;;;;;;20.83;70.33;99500.56;345179;28;1135;-66
2022/06/05 00:23:29;;;;;;;9.10;8.20;;;;;;;20.83;69.98;99500.56;345956;28;1445;-66
2022/06/05 00:23:41;;;;;;;9.15;8.20;;;;;;;20.84;69.86;99491.66;344871;28;1758;-66
2022/06/05 00:23:54;;;;;;;9.05;8.15;;;;;;;20.84;69.79;99502.22;346089;28;2180;-66
2022/06/05 00:24:06;;;;;;;8.90;8.10;;;;;;;20.83;69.75;99497.94;346344;28;1094;-66
2022/06/05 00:24:19;;;;;;;8.95;8.05;;;;;;;20.82;69.85;99493.59;346291;28;1993;-66
2022/06/05 00:24:33;;;;;;;8.98;8.10;;;;;;;20.82;70.12;99490.94;345948;28;1443;-66
2022/06/05 00:24:46;;;;;;;8.88;8.10;;;;;;;20.83;69.88;99487.38;346673;28;1906;-66
2022/06/05 00:24:58;;;;;;;9.00;8.20;;;;;;;20.84;69.85;99496.94;344406;28;2048;-66
2022/06/05 00:25:10;;;;;;;9.30;8.45;;;;;;;20.85;69.84;99488.09;345335;28;2085;-66
2022/06/05 00:25:33;;;;;;;9.55;8.65;;;;;;;20.85;69.68;99491.56;345866;28;1901;-66
2022/06/05 00:26:00;;;;;;;8.95;8.13;;;;;;;20.88;69.60;99495.75;345039;28;1256;-66
2022/06/05 00:26:45;;;;;;;8.70;7.90;;;;;;;20.92;69.89;99494.56;344978;28;1169;-66
2022/06/05 00:27:07;;;;;;;9.05;8.25;;;;;;;20.91;69.49;99495.53;342202;28;1088;-66
2022/06/05 00:27:31;;;;;;;9.00;8.10;;;;;;;20.94;69.38;99503.19;346643;28;1884;-66
2022/06/05 00:28:04;;;;;;;8.93;8.05;;;;;;;20.96;69.22;99501.28;344987;28;1365;-66
2022/06/05 00:28:15;;;;;;;8.88;7.80;;;;;;;20.97;69.32;99505.63;345870;28;1285;-66
2022/06/05 00:28:36;;;;;;;8.68;7.68;;;;;;;20.98;69.62;99506.44;346298;28;1373;-66
2022/06/05 00:29:06;;;;;;;8.57;7.68;;;;;;;20.96;69.50;99506.56;346420;28;1947;-66
2022/06/05 00:29:49;;;;;;;8.52;7.82;;;;;;;20.92;69.54;99513.03;345208;28;844;-66
2022/06/05 00:30:09;;;;;;;9.00;8.20;;;;;;;20.88;69.74;99515.06;344515;28;1393;-66
2022/06/05 00:30:41;;;;;;;9.65;8.35;;;;;;;20.90;69.58;99514.97;344687;28;1027;-66
2022/06/05 00:31:15;;;;;;;9.88;8.30;;;;;;;20.93;69.42;99517.38;346403;28;2046;-65
2022/06/05 00:31:52;;;;;;;9.02;8.10;;;;;;;20.97;69.48;99523.25;345910;28;1373;-66
2022/06/05 00:32:14;;;;;;;8.90;8.10;;;;;;;20.99;69.63;99511.63;344838;28;1887;-66
2022/06/05 00:32:29;;;;;;;8.65;7.95;;;;;;;21.01;69.13;99524.72;346750;28;2117;-66
2022/06/05 00:32:56;;;;;;;8.45;7.80;;;;;;;21.02;69.26;99514.00;344747;28;1029;-66
2022/06/05 00:33:20;;;;;;;8.98;8.15;;;;;;;21.03;69.29;99513.06;345087;28;1200;-66
2022/06/05 00:33:37;;;;;;;8.75;8.00;;;;;;;21.03;68.95;99518.34;345674;28;1332;-66
2022/06/05 00:33:50;;;;;;;8.52;7.82;;;;;;;21.02;69.16;99518.47;346544;28;1951;-66
2022/06/05 00:34:02;;;;;;;8.60;7.90;;;;;;;21.03;69.08;99517.50;344920;28;1331;-66
2022/06/05 00:34:14;;;;;;;8.88;8.10;;;;;;;21.00;69.06;99518.56;344681;28;1051;-66
2022/06/05 00:34:29;;;;;;;9.65;8.30;;;;;;;20.98;69.69;99519.66;341856;28;1266;-66
2022/06/05 00:34:42;;;;;;;10.07;8.13;;;;;;;20.99;69.23;99522.19;341454;28;1922;-66
2022/06/05 00:34:54;;;;;;;9.15;8.18;;;;;;;21.00;69.23;99523.03;342819;28;2116;-66
2022/06/05 00:35:09;;;;;;;9.05;8.20;;;;;;;21.00;69.38;99523.84;343345;28;1149;-66
2022/06/05 00:35:31;;;;;;;8.68;7.90;;;;;;;21.02;69.20;99521.94;343271;28;1357;-66
2022/06/05 00:35:58;;;;;;;8.60;7.80;;;;;;;21.03;69.20;99515.69;343328;28;1986;-66
2022/06/05 00:36:57;;;;;;;8.85;8.05;;;;;;;21.02;69.30;99519.28;343324;28;1019;-66
2022/06/05 00:37:17;;;;;;;8.40;7.53;;;;;;;21.08;69.14;99520.63;340628;29;1053;-66
2022/06/05 00:37:34;;;;;;;8.80;7.93;;;;;;;21.08;69.13;99520.63;340276;29;1382;-66
2022/06/05 00:38:12;;;;;;;8.70;7.85;;;;;;;21.07;68.86;99514.50;341062;28;1957;-66
2022/06/05 00:38:56;;;;;;;8.15;7.45;;;;;;;21.08;69.10;99516.16;338952;29;1401;-66
2022/06/05 00:39:29;;;;;;;9.20;8.30;;;;;;;21.09;69.17;99527.59;338184;29;1198;-66
2022/06/05 00:40:00;;;;;;;8.95;8.05;;;;;;;21.09;69.04;99517.03;338180;29;1999;-66
2022/06/05 00:40:21;;;;;;;8.88;8.07;;;;;;;21.07;69.40;99522.44;338998;29;1742;-66
2022/06/05 00:40:44;;;;;;;9.32;8.43;;;;;;;21.05;69.27;99527.00;340933;29;1184;-66
2022/06/05 00:41:13;;;;;;;9.48;8.55;;;;;;;21.05;69.31;99518.22;340945;28;1849;-66
2022/06/05 00:41:25;;;;;;;8.68;7.82;;;;;;;21.06;69.43;99523.38;340580;28;2740;-66
2022/06/05 00:42:09;;;;;;;8.70;7.80;;;;;;;21.05;69.10;99516.41;339943;28;1669;-66
2022/06/05 00:42:27;;;;;;;8.80;8.10;;;;;;;21.06;69.07;99520.72;339464;29;1515;-66
2022/06/05 00:42:39;;;;;;;8.25;7.45;;;;;;;21.07;69.38;99522.44;340065;28;1912;-66
2022/06/05 00:42:52;;;;;;;8.23;7.38;;;;;;;21.09;69.04;99527.59;341580;28;1163;-66
2022/06/05 00:43:08;;;;;;;8.38;7.50;;;;;;;21.08;68.81;99526.75;340328;29;1249;-66
2022/06/05 00:43:24;;;;;;;8.70;7.60;;;;;;;21.10;68.70;99524.81;340739;29;1063;-66
2022/06/05 00:43:37;;;;;;;8.20;7.40;;;;;;;21.11;69.18;99521.22;344554;28;2267;-66
2022/06/05 00:43:54;;;;;;;8.25;7.30;;;;;;;21.09;68.87;99528.44;345703;28;1891;-66
2022/06/05 00:44:10;;;;;;;9.10;7.88;;;;;;;21.08;69.07;99528.53;345045;28;1345;-66
2022/06/05 00:44:32;;;;;;;8.80;8.00;;;;;;;21.05;68.72;99531.44;345074;28;1138;-66
2022/06/05 00:44:49;;;;;;;8.65;7.85;;;;;;;21.03;68.96;99528.91;345620;28;1788;-66
2022/06/05 00:45:10;;;;;;;8.80;8.00;;;;;;;21.04;68.87;99532.38;344834;28;1083;-66
2022/06/05 00:45:22;;;;;;;8.73;8.00;;;;;;;21.05;69.00;99537.56;344652;28;4568;-66
2022/06/05 00:45:35;;;;;;;9.05;8.30;;;;;;;21.08;68.99;99536.47;345828;28;2264;-66
2022/06/05 00:45:47;;;;;;;9.00;8.20;;;;;;;21.09;69.07;99532.88;346361;28;2619;-66
2022/06/05 00:46:00;;;;;;;8.95;8.15;;;;;;;21.08;69.05;99537.31;345727;28;1113;-66
2022/06/05 00:46:13;;;;;;;8.98;8.18;;;;;;;21.07;68.98;99538.28;344493;28;1588;-66
2022/06/05 00:46:26;;;;;;;8.85;8.05;;;;;;;21.07;68.83;99540.09;344848;28;1586;-66
2022/06/05 00:46:39;;;;;;;8.70;7.85;;;;;;;21.08;68.82;99542.59;344788;28;2053;-66
2022/06/05 00:46:52;;;;;;;8.63;7.72;;;;;;;21.09;69.11;99543.47;345777;28;1948;-66
2022/06/05 00:47:06;;;;;;;8.57;7.78;;;;;;;21.08;68.74;99542.59;346145;28;1164;-66
2022/06/05 00:47:23;;;;;;;8.52;7.82;;;;;;;21.05;69.09;99542.03;344443;28;1509;-66
2022/06/05 00:47:35;;;;;;;8.80;8.00;;;;;;;21.03;69.07;99547.41;344609;28;1891;-66
2022/06/05 00:47:48;;;;;;;8.60;7.80;;;;;;;21.05;69.20;99542.84;346309;28;1950;-66
2022/06/05 00:48:00;;;;;;;7.82;7.15;;;;;;;21.07;69.33;99542.75;344701;28;1935;-66
2022/06/05 00:48:12;;;;;;;7.40;6.80;;;;;;;21.08;69.00;99547.88;344791;28;1043;-66
2022/06/05 00:48:25;;;;;;;7.68;7.03;;;;;;;21.08;69.19;99547.88;345126;28;1054;-66
2022/06/05 00:48:37;;;;;;;7.78;7.15;;;;;;;21.08;68.88;99542.59;345093;28;2105;-66
2022/06/05 00:48:50;;;;;;;7.82;7.18;;;;;;;21.06;69.04;99541.88;345488;28;2046;-66
2022/06/05 00:49:04;;;;;;;8.15;7.43;;;;;;;21.02;69.28;99553.66;345035;28;1043;-66
2022/06/05 00:49:17;;;;;;;8.55;7.75;;;;;;;21.02;69.18;99551.00;345062;28;1333;-66
2022/06/05 00:49:37;;;;;;;7.87;7.20;;;;;;;21.03;69.02;99552.69;345506;28;1687;-66
2022/06/05 00:50:04;;;;;;;7.85;7.05;;;;;;;21.02;68.93;99555.47;346688;28;1883;-66
2022/06/05 00:50:23;;;;;;;8.95;7.60;;;;;;;20.99;69.32;99558.31;345357;28;1957;-66
2022/06/05 00:50:37;;;;;;;8.38;7.60;;;;;;;20.97;69.04;99553.19;346826;28;1046;-66
2022/06/05 00:50:49;;;;;;;8.40;7.60;;;;;;;20.95;69.04;99552.47;346408;28;1181;-67
2022/06/05 00:51:01;;;;;;;8.65;7.80;;;;;;;20.96;69.11;99554.13;346646;28;1347;-66
2022/06/05 00:51:13;;;;;;;8.57;7.72;;;;;;;20.96;69.31;99562.06;346449;28;1037;-66
2022/06/05 00:51:25;;;;;;;7.97;7.28;;;;;;;20.95;69.19;99557.75;346104;28;1270;-66
2022/06/05 00:51:38;;;;;;;7.60;6.90;;;;;;;20.95;69.30;99558.56;345124;28;1897;-66
2022/06/05 00:51:50;;;;;;;7.55;6.85;;;;;;;20.96;69.53;99556.75;344972;28;1618;-66
2022/06/05 00:52:04;;;;;;;7.80;7.10;;;;;;;20.94;69.42;99561.31;347322;28;2013;-66
2022/06/05 00:52:17;;;;;;;8.57;7.78;;;;;;;20.90;69.78;99555.44;347838;28;1058;-66
2022/06/05 00:52:32;;;;;;;8.57;7.80;;;;;;;20.91;69.82;99556.28;346239;28;2191;-66
2022/06/05 00:52:48;;;;;;;8.35;7.55;;;;;;;20.91;69.60;99565.06;346243;28;1197;-66
2022/06/05 00:53:03;;;;;;;8.93;7.20;;;;;;;20.91;69.65;99559.78;344084;28;1945;-66
2022/06/05 00:53:15;;;;;;;8.65;7.07;;;;;;;20.91;69.34;99561.56;344988;28;1075;-66
2022/06/05 00:53:27;;;;;;;8.00;7.20;;;;;;;20.92;69.58;99568.53;345399;28;1258;-66
2022/06/05 00:53:39;;;;;;;8.13;7.32;;;;;;;20.91;69.71;99569.50;346017;28;1301;-66
2022/06/05 00:53:52;;;;;;;7.75;7.05;;;;;;;20.91;69.65;99561.56;346302;28;1101;-66
2022/06/05 00:54:06;;;;;;;7.85;7.07;;;;;;;20.90;69.65;99562.53;346169;28;1364;-66
2022/06/05 00:54:18;;;;;;;8.57;7.13;;;;;;;20.90;69.67;99570.44;346297;28;1237;-66
2022/06/05 00:54:30;;;;;;;8.85;7.20;;;;;;;20.90;69.49;99570.44;345901;28;1304;-66
2022/06/05 00:54:42;;;;;;;8.07;7.15;;;;;;;20.89;69.52;99563.50;345116;28;1904;-66
2022/06/05 00:54:55;;;;;;;8.15;7.32;;;;;;;20.89;69.73;99569.63;345969;28;2007;-66
2022/06/05 00:55:08;;;;;;;8.63;7.72;;;;;;;20.90;69.51;99570.44;345980;28;1068;-66
2022/06/05 00:55:20;;;;;;;9.00;7.90;;;;;;;20.89;69.42;99568.78;345888;28;1098;-66
2022/06/05 00:55:42;;;;;;;8.60;7.72;;;;;;;20.88;69.44;99572.38;345925;28;2076;-66
2022/06/05 00:55:54;;;;;;;8.27;7.47;;;;;;;20.88;69.35;99581.13;345566;28;1580;-66
2022/06/05 00:56:10;;;;;;;8.63;7.82;;;;;;;20.88;69.50;99577.66;345148;28;2013;-66
2022/06/05 00:56:22;;;;;;;8.60;7.70;;;;;;;20.87;69.51;99578.63;345873;28;1179;-66
2022/06/05 00:56:34;;;;;;;8.55;7.65;;;;;;;20.87;69.78;99576.00;345362;28;1968;-66
2022/06/05 00:56:46;;;;;;;8.30;7.53;;;;;;;20.87;69.71;99581.28;346388;28;2050;-66
2022/06/05 00:56:58;;;;;;;8.07;7.35;;;;;;;20.86;69.45;99579.56;346498;28;1218;-66
2022/06/05 00:57:12;;;;;;;8.00;7.18;;;;;;;20.87;69.61;99581.28;345937;28;1312;-66
2022/06/05 00:57:30;;;;;;;8.18;7.25;;;;;;;20.86;69.77;99584.84;345839;28;1220;-66
2022/06/05 00:57:42;;;;;;;8.43;7.43;;;;;;;20.87;69.44;99581.28;344846;28;1808;-66
2022/06/05 00:57:56;;;;;;;8.55;7.45;;;;;;;20.87;69.43;99583.91;346161;28;1484;-66
2022/06/05 00:58:08;;;;;;;7.95;7.25;;;;;;;20.87;69.75;99586.56;346066;28;1115;-66
2022/06/05 00:58:21;;;;;;;8.32;7.45;;;;;;;20.88;69.67;99582.94;346211;28;1235;-66
2022/06/05 00:58:33;;;;;;;8.70;7.55;;;;;;;20.89;69.28;99579.34;345791;28;1162;-66
2022/06/05 00:58:45;;;;;;;8.55;7.75;;;;;;;20.89;69.51;99587.28;345593;28;1895;-66
2022/06/05 00:58:57;;;;;;;8.27;7.50;;;;;;;20.90;69.55;99588.94;346054;28;1069;-66
2022/06/05 00:59:12;;;;;;;8.75;7.65;;;;;;;20.89;69.33;99584.63;346274;28;1197;-66
2022/06/05 00:59:26;;;;;;;8.45;7.65;;;;;;;20.88;69.78;99585.56;346225;28;1114;-66
2022/06/05 00:59:40;;;;;;;8.05;7.35;;;;;;;20.88;69.67;99578.50;345183;28;1843;-66
2022/06/05 00:59:53;;;;;;;8.00;7.30;;;;;;;20.85;69.58;99585.84;345560;28;2118;-66
2022/06/05 01:00:15;;;;;;;8.23;7.43;;;;;;;20.84;69.95;99592.88;343957;28;1854;-66
2022/06/05 01:00:30;;;;;;;9.07;7.78;;;;;;;20.81;69.96;99581.75;343734;28;1331;-66
2022/06/05 01:00:47;;;;;;;9.55;8.18;;;;;;;20.80;70.09;99585.31;343472;28;2094;-66
2022/06/05 01:00:59;;;;;;;9.52;8.30;;;;;;;20.79;70.13;99581.84;344248;28;1190;-66
2022/06/05 01:01:12;;;;;;;8.90;8.10;;;;;;;20.76;70.65;99579.44;344770;28;1235;-66
2022/06/05 01:01:25;;;;;;;9.23;8.43;;;;;;;20.74;70.44;99587.50;345030;28;1191;-66
2022/06/05 01:01:39;;;;;;;9.40;8.50;;;;;;;20.70;70.63;99580.72;344369;28;1063;-66
2022/06/05 01:01:53;;;;;;;9.93;8.45;;;;;;;20.71;70.81;99587.72;346269;28;1702;-66
2022/06/05 01:02:07;;;;;;;10.85;8.70;;;;;;;20.68;70.70;99580.00;344726;28;2480;-66
2022/06/05 01:02:20;;;;;;;10.35;8.57;;;;;;;20.65;70.88;99582.91;345053;28;1313;-65
2022/06/05 01:02:32;;;;;;;9.52;8.52;;;;;;;20.56;71.61;99578.25;346088;28;1327;-66
2022/06/05 01:02:47;;;;;;;10.15;8.80;;;;;;;20.48;71.60;99578.00;345592;28;1924;-66
2022/06/05 01:03:03;;;;;;;9.93;8.75;;;;;;;20.44;72.23;99576.53;345816;28;1072;-66
2022/06/05 01:03:16;;;;;;;9.43;8.60;;;;;;;20.42;72.31;99581.94;346313;28;1042;-66
2022/06/05 01:03:28;;;;;;;9.85;8.88;;;;;;;20.45;72.20;99576.44;345760;28;1378;-65
2022/06/05 01:03:40;;;;;;;11.15;9.00;;;;;;;20.48;72.21;99581.50;345235;28;1915;-65
2022/06/05 01:04:00;;;;;;;10.23;8.55;;;;;;;20.48;72.20;99583.28;346132;28;2044;-66
2022/06/05 01:04:13;;;;;;;9.02;7.82;;;;;;;20.54;72.15;99580.19;344934;28;1082;-66
2022/06/05 01:04:27;;;;;;;8.70;7.55;;;;;;;20.54;71.87;99585.47;344944;28;1391;-66
2022/06/05 01:04:42;;;;;;;9.93;8.27;;;;;;;20.57;71.75;99579.13;345483;28;1938;-66
2022/06/05 01:04:56;;;;;;;10.70;8.57;;;;;;;20.59;71.73;99583.34;346051;28;2060;-65
2022/06/05 01:05:11;;;;;;;9.18;8.20;;;;;;;20.57;71.43;99579.97;346364;28;1098;-66
2022/06/05 01:05:25;;;;;;;9.43;8.23;;;;;;;20.55;71.32;99577.44;346255;28;1027;-66
2022/06/05 01:05:38;;;;;;;10.02;8.35;;;;;;;20.58;71.18;99580.78;345739;28;1780;-66
2022/06/05 01:05:51;;;;;;;10.00;8.38;;;;;;;20.60;71.11;99585.03;344201;28;1886;-66
2022/06/05 01:06:04;;;;;;;9.70;8.10;;;;;;;20.59;70.92;99583.34;346303;28;1089;-66
2022/06/05 01:06:16;;;;;;;10.55;8.07;;;;;;;20.64;71.00;99578.56;346426;28;1188;-66
2022/06/05 01:06:29;;;;;;;9.30;7.82;;;;;;;20.66;70.75;99579.28;346144;28;1271;-66
2022/06/05 01:06:41;;;;;;;8.30;7.32;;;;;;;20.69;70.76;99580.88;346690;28;1773;-66
2022/06/05 01:06:53;;;;;;;7.65;6.95;;;;;;;20.72;70.49;99578.81;347348;28;1042;-66
2022/06/05 01:07:05;;;;;;;7.82;7.05;;;;;;;20.72;70.57;99578.81;346209;28;1967;-66
2022/06/05 01:07:19;;;;;;;9.05;7.47;;;;;;;20.74;70.35;99576.06;346147;28;1125;-66
2022/06/05 01:07:31;;;;;;;8.50;7.57;;;;;;;20.72;70.48;99583.25;346139;28;1790;-65
2022/06/05 01:07:43;;;;;;;8.60;7.60;;;;;;;20.68;70.42;99577.38;345694;28;1976;-66
2022/06/05 01:07:56;;;;;;;8.77;7.88;;;;;;;20.70;70.40;99580.72;346202;28;2031;-65
2022/06/05 01:08:10;;;;;;;8.73;7.88;;;;;;;20.71;70.53;99582.44;346465;28;1093;-65
2022/06/05 01:08:22;;;;;;;8.50;7.78;;;;;;;20.72;70.18;99583.25;346343;28;1155;-65
2022/06/05 01:08:35;;;;;;;8.70;7.93;;;;;;;20.72;70.46;99573.53;346368;28;1493;-66
2022/06/05 01:08:47;;;;;;;9.00;8.20;;;;;;;20.74;70.25;99581.34;346239;28;1689;-66
2022/06/05 01:08:59;;;;;;;9.10;8.20;;;;;;;20.77;70.37;99580.28;345370;28;1920;-66
2022/06/05 01:09:11;;;;;;;9.35;8.02;;;;;;;20.79;69.98;99588.94;346368;28;1086;-66
2022/06/05 01:09:23;;;;;;;8.43;7.63;;;;;;;20.81;70.15;99582.56;346422;28;1282;-66
2022/06/05 01:09:37;;;;;;;8.43;7.70;;;;;;;20.82;70.11;99584.25;346374;28;1066;-65
2022/06/05 01:09:52;;;;;;;8.40;7.70;;;;;;;20.83;70.18;99579.81;345199;28;2240;-65
2022/06/05 01:10:06;;;;;;;8.70;7.90;;;;;;;20.83;70.02;99585.09;344871;28;1437;-65
2022/06/05 01:10:21;;;;;;;9.30;8.40;;;;;;;20.84;69.97;99577.03;345009;28;1177;-66
2022/06/05 01:10:45;;;;;;;9.10;8.30;;;;;;;20.87;69.94;99576.00;345907;28;1264;-66
2022/06/05 01:11:22;;;;;;;8.63;7.88;;;;;;;20.91;69.78;99572.16;346021;28;906;-65
2022/06/05 01:11:56;;;;;;;8.65;7.88;;;;;;;20.97;69.73;99579.59;346303;28;1242;-65
2022/06/05 01:12:46;;;;;;;8.55;7.75;;;;;;;20.99;69.81;99569.75;345376;28;1400;-66
2022/06/05 01:13:09;;;;;;;8.80;8.00;;;;;;;21.02;69.37;99572.13;345460;28;1639;-66
2022/06/05 01:13:49;;;;;;;8.60;7.80;;;;;;;21.02;69.44;99568.66;346442;28;1061;-66
2022/06/05 01:14:13;;;;;;;9.13;8.20;;;;;;;21.01;69.70;99567.00;345148;28;1587;-66
2022/06/05 01:14:28;;;;;;;8.95;8.10;;;;;;;21.00;70.32;99563.50;344922;28;1380;-66
2022/06/05 01:14:51;;;;;;;9.00;8.20;;;;;;;21.00;70.22;99560.03;345222;28;1916;-66
2022/06/05 01:15:26;;;;;;;8.55;7.70;;;;;;;21.00;70.13;99555.56;344489;28;2032;-66
2022/06/05 01:15:45;;;;;;;9.07;8.27;;;;;;;21.00;70.03;99566.13;344487;28;1964;-65
2022/06/05 01:16:00;;;;;;;8.90;8.05;;;;;;;21.01;70.09;99562.56;345794;28;2119;-65
2022/06/05 01:16:34;;;;;;;8.32;7.53;;;;;;;21.02;69.88;99564.22;346142;28;1102;-65
2022/06/05 01:17:15;;;;;;;8.85;8.05;;;;;;;21.02;70.10;99563.38;347353;28;1862;-66
2022/06/05 01:17:47;;;;;;;8.10;7.40;;;;;;;21.02;69.94;99566.84;340763;29;1323;-66
2022/06/05 01:18:13;;;;;;;8.20;7.40;;;;;;;21.01;69.86;99562.56;345975;28;1044;-66
2022/06/05 01:18:43;;;;;;;8.07;7.38;;;;;;;21.03;69.86;99565.06;346250;28;1312;-66
2022/06/05 01:19:19;;;;;;;8.18;7.15;;;;;;;21.04;69.67;99562.28;346223;28;1857;-66
2022/06/05 01:19:49;;;;;;;9.27;7.82;;;;;;;21.03;69.45;99560.63;345742;28;1400;-66
2022/06/05 01:20:12;;;;;;;8.57;7.75;;;;;;;21.05;69.82;99564.00;345874;28;1374;-66
2022/06/05 01:20:54;;;;;;;8.38;7.40;;;;;;;21.06;69.53;99557.72;344713;28;1059;-66
2022/06/05 01:21:28;;;;;;;8.48;7.60;;;;;;;21.05;69.69;99553.41;345026;28;1101;-66
2022/06/05 01:21:55;;;;;;;9.35;7.25;;;;;;;21.06;69.71;99548.97;344912;28;1960;-66
2022/06/05 01:22:09;;;;;;;9.32;7.47;;;;;;;21.04;69.54;99546.44;345034;28;1098;-66
2022/06/05 01:22:40;;;;;;;9.82;7.70;;;;;;;21.06;69.14;99544.53;345043;28;1026;-66
2022/06/05 01:22:55;;;;;;;8.52;7.63;;;;;;;21.06;69.49;99547.16;346644;28;1954;-66
2022/06/05 01:23:38;;;;;;;9.00;8.05;;;;;;;21.05;69.19;99545.50;346225;28;1832;-66
2022/06/05 01:24:23;;;;;;;8.75;7.95;;;;;;;21.03;68.79;99543.94;345059;28;1071;-65
2022/06/05 01:24:57;;;;;;;8.35;7.60;;;;;;;21.02;69.35;99537.78;344990;28;1188;-65
2022/06/05 01:25:44;;;;;;;8.80;7.90;;;;;;;21.04;68.81;99545.59;346963;28;1242;-66
2022/06/05 01:26:03;;;;;;;9.07;8.23;;;;;;;21.03;69.23;99536.84;345875;28;1984;-66
2022/06/05 01:26:19;;;;;;;8.95;8.07;;;;;;;21.04;69.16;99540.31;345021;28;1240;-65
2022/06/05 01:26:38;;;;;;;9.32;8.02;;;;;;;21.04;69.35;99525.28;345902;28;2183;-65
2022/06/05 01:27:00;;;;;;;8.93;8.02;;;;;;;21.05;69.20;99542.03;345021;28;1027;-65
2022/06/05 01:27:17;;;;;;;9.88;7.82;;;;;;;21.04;69.23;99533.22;345060;28;1031;-66
2022/06/05 01:27:33;;;;;;;8.45;7.50;;;;;;;21.05;68.87;99537.56;345390;28;1337;-66
2022/06/05 01:27:54;;;;;;;9.07;7.68;;;;;;;21.06;69.01;99538.41;346257;28;1922;-67
2022/06/05 01:28:16;;;;;;;8.95;7.57;;;;;;;21.05;68.97;99532.28;345802;28;1780;-66
2022/06/05 01:28:32;;;;;;;9.00;8.07;;;;;;;21.04;69.25;99541.16;345219;28;1310;-66
2022/06/05 01:29:10;;;;;;;9.57;8.02;;;;;;;21.04;69.53;99540.31;346224;28;1228;-66
2022/06/05 01:29:29;;;;;;;7.63;6.93;;;;;;;21.03;69.47;99539.50;340629;29;1148;-66
2022/06/05 01:29:50;;;;;;;8.27;7.45;;;;;;;21.02;69.05;99535.16;341297;28;1214;-66
2022/06/05 01:30:11;;;;;;;9.07;8.18;;;;;;;21.00;69.36;99538.88;344766;28;1757;-66
2022/06/05 01:30:24;;;;;;;8.70;7.88;;;;;;;21.01;69.47;99544.06;344943;28;1141;-66
2022/06/05 01:30:45;;;;;;;9.30;8.07;;;;;;;21.00;69.40;99537.06;344938;28;1695;-66
2022/06/05 01:31:20;;;;;;;9.60;8.63;;;;;;;20.93;69.50;99533.25;345840;28;1549;-66
2022/06/05 01:31:39;;;;;;;8.80;8.05;;;;;;;20.91;69.74;99541.28;346057;28;1277;-66
2022/06/05 01:31:56;;;;;;;8.88;8.02;;;;;;;20.89;69.83;99540.56;346738;28;1749;-65